createdAt,value
2019-03-20T00:00:08.862Z,81.28
2019-03-20T00:02:44.826Z,81.45
2019-03-20T00:05:20.295Z,81.77
2019-03-20T00:07:54.143Z,81.98
2019-03-20T00:10:28.294Z,82.11
2019-03-20T00:13:01.641Z,81.97
2019-03-20T00:15:35.475Z,81.99
2019-03-20T00:18:09.674Z,82.06
2019-03-20T00:20:52.653Z,81.78
2019-03-20T00:23:38.939Z,81.62
2019-03-20T00:26:13.097Z,81.51
2019-03-20T00:28:47.507Z,81.53
2019-03-20T00:31:21.088Z,81.73
2019-03-20T00:33:54.537Z,81.87
2019-03-20T00:36:29.569Z,81.99
2019-03-20T00:39:08.406Z,82.18
2019-03-20T00:41:42.610Z,82.18
2019-03-20T00:44:16.474Z,82.22
2019-03-20T00:46:59.850Z,82.19
2019-03-20T00:49:33.374Z,82.12
2019-03-20T00:52:07.361Z,81.97
2019-03-20T00:54:41.468Z,81.92
2019-03-20T00:57:15.593Z,81.91
2019-03-20T00:59:58.689Z,81.93
2019-03-20T01:02:41.504Z,81.98
2019-03-20T01:05:24.827Z,82.21
2019-03-20T01:07:59.906Z,82.48
2019-03-20T01:10:33.858Z,82.65
2019-03-20T01:13:07.729Z,82.62
2019-03-20T01:15:42.238Z,82.35
2019-03-20T01:18:16.171Z,82.04
2019-03-20T01:20:50.404Z,81.86
2019-03-20T01:23:24.076Z,81.99
2019-03-20T01:26:07.779Z,82.22
2019-03-20T01:28:42.118Z,82.27
2019-03-20T01:31:15.407Z,82.24
2019-03-20T01:33:48.928Z,81.99
2019-03-20T01:36:23.048Z,81.97
2019-03-20T01:39:11.475Z,82.17
2019-03-20T01:41:44.816Z,82.20
2019-03-20T01:44:19.011Z,82.03
2019-03-20T01:47:07.682Z,82.05
2019-03-20T01:49:43.036Z,81.96
2019-03-20T01:52:16.967Z,82.04
2019-03-20T01:55:06.274Z,82.44
2019-03-20T01:57:43.708Z,82.58
2019-03-20T02:00:16.039Z,82.60
2019-03-20T02:02:59.355Z,82.66
2019-03-20T02:05:36.242Z,82.56
2019-03-20T02:08:09.614Z,82.49
2019-03-20T02:10:54.678Z,82.50
2019-03-20T02:13:28.789Z,82.56
2019-03-20T02:16:02.788Z,82.47
2019-03-20T02:18:46.673Z,82.47
2019-03-20T02:21:20.221Z,82.49
2019-03-20T02:23:54.394Z,82.46
2019-03-20T02:26:28.031Z,82.37
2019-03-20T02:29:02.298Z,82.34
2019-03-20T02:31:36.683Z,82.49
2019-03-20T02:34:10.243Z,82.76
2019-03-20T02:36:45.846Z,83.03
2019-03-20T02:39:35.050Z,83.21
2019-03-20T02:42:18.318Z,83.33
2019-03-20T02:44:52.813Z,83.41
2019-03-20T02:47:41.940Z,83.45
2019-03-20T02:50:15.341Z,83.42
2019-03-20T02:52:50.446Z,83.37
2019-03-20T02:55:36.162Z,83.54
2019-03-20T02:58:18.264Z,83.39
2019-03-20T03:00:52.047Z,83.36
2019-03-20T03:03:25.780Z,83.19
2019-03-20T03:06:07.152Z,83.00
2019-03-20T03:08:37.360Z,82.78
2019-03-20T03:11:10.914Z,82.67
2019-03-20T03:13:46.211Z,82.24
2019-03-20T03:16:20.437Z,81.90
2019-03-20T03:19:03.494Z,81.51
2019-03-20T03:21:38.482Z,81.03
2019-03-20T03:24:21.276Z,80.32
2019-03-20T03:27:04.325Z,79.75
2019-03-20T03:29:52.813Z,79.57
2019-03-20T03:32:36.164Z,79.45
2019-03-20T03:35:22.553Z,79.67
2019-03-20T03:37:57.877Z,79.85
2019-03-20T03:40:40.497Z,80.18
2019-03-20T03:43:14.296Z,80.65
2019-03-20T03:45:57.949Z,80.96
2019-03-20T03:48:32.345Z,81.27
2019-03-20T03:51:15.435Z,81.50
2019-03-20T03:53:50.143Z,81.77
2019-03-20T03:56:24.732Z,82.10
2019-03-20T03:58:58.798Z,82.41
2019-03-20T04:01:33.157Z,82.69
2019-03-20T04:04:16.036Z,82.94
2019-03-20T04:06:59.517Z,83.09
2019-03-20T04:09:33.663Z,83.04
2019-03-20T04:12:17.145Z,82.90
2019-03-20T04:14:51.747Z,83.01
2019-03-20T04:17:35.087Z,83.16
2019-03-20T04:20:09.967Z,83.18
2019-03-20T04:22:52.662Z,83.14
2019-03-20T04:25:25.800Z,83.23
2019-03-20T04:28:00.430Z,83.32
2019-03-20T04:30:34.206Z,83.21
2019-03-20T04:33:17.504Z,83.26
2019-03-20T04:35:51.714Z,83.31
2019-03-20T04:38:25.217Z,83.40
2019-03-20T04:41:03.944Z,83.48
2019-03-20T04:46:55.679Z,83.40
2019-03-20T04:49:38.712Z,83.22
2019-03-20T04:52:21.524Z,83.13
2019-03-20T04:55:04.123Z,83.31
2019-03-20T04:57:38.795Z,83.30
2019-03-20T05:00:14.483Z,83.33
2019-03-20T05:02:48.367Z,83.34
2019-03-20T05:05:31.632Z,83.32
2019-03-20T05:08:05.061Z,83.36
2019-03-20T05:10:51.413Z,83.47
2019-03-20T05:13:24.850Z,83.68
2019-03-20T05:15:58.778Z,83.67
2019-03-20T05:18:33.009Z,83.44
2019-03-20T05:21:15.287Z,83.30
2019-03-20T05:23:49.145Z,83.41
2019-03-20T05:26:23.809Z,83.22
2019-03-20T05:28:57.623Z,83.27
2019-03-20T05:31:31.978Z,83.11
2019-03-20T05:34:15.157Z,83.04
2019-03-20T05:37:10.373Z,82.79
2019-03-20T05:39:50.080Z,82.60
2019-03-20T05:42:33.719Z,82.08
2019-03-20T05:45:08.434Z,81.75
2019-03-20T05:47:59.373Z,81.42
2019-03-20T05:50:31.137Z,81.02
2019-03-20T05:53:15.587Z,80.66
2019-03-20T05:56:00.454Z,80.39
2019-03-20T05:58:34.336Z,80.10
2019-03-20T06:01:19.712Z,79.73
2019-03-20T06:04:03.424Z,79.67
2019-03-20T06:06:37.859Z,79.52
2019-03-20T06:09:20.994Z,79.41
2019-03-20T06:11:56.585Z,79.25
2019-03-20T06:14:31.258Z,79.13
2019-03-20T06:17:06.085Z,78.96
2019-03-20T06:19:49.860Z,78.71
2019-03-20T06:22:24.046Z,78.54
2019-03-20T06:24:58.059Z,78.50
2019-03-20T06:27:41.192Z,78.48
2019-03-20T06:30:15.661Z,78.51
2019-03-20T06:32:49.440Z,78.41
2019-03-20T06:35:33.278Z,78.30
2019-03-20T06:38:06.726Z,78.38
2019-03-20T06:40:40.503Z,78.38
2019-03-20T06:43:14.344Z,78.27
2019-03-20T06:45:48.091Z,78.07
2019-03-20T06:48:21.635Z,77.83
2019-03-20T06:50:55.662Z,77.81
2019-03-20T06:53:39.117Z,77.68
2019-03-20T06:56:13.172Z,77.62
2019-03-20T06:58:47.904Z,77.72
2019-03-20T07:01:34.357Z,77.68
2019-03-20T07:04:31.734Z,77.59
2019-03-20T07:07:27.538Z,77.47
2019-03-20T07:10:11.212Z,77.39
2019-03-20T07:12:45.696Z,77.33
2019-03-20T07:15:20.098Z,77.27
2019-03-20T07:17:54.237Z,77.30
2019-03-20T07:20:37.484Z,77.13
2019-03-20T07:23:10.690Z,77.04
2019-03-20T07:25:44.184Z,77.00
2019-03-20T07:28:27.147Z,76.75
2019-03-20T07:31:15.194Z,76.78
2019-03-20T07:33:54.945Z,76.70
2019-03-20T07:36:28.203Z,76.64
2019-03-20T07:39:01.776Z,76.44
2019-03-20T07:41:46.163Z,76.20
2019-03-20T07:44:18.278Z,76.11
2019-03-20T07:46:52.163Z,76.01
2019-03-20T07:49:25.915Z,75.89
2019-03-20T07:52:00.141Z,75.52
2019-03-20T07:54:43.162Z,74.86
2019-03-20T07:57:16.699Z,74.86
2019-03-20T07:59:50.173Z,74.79
2019-03-20T08:02:23.596Z,74.09
2019-03-20T08:04:57.474Z,73.84
2019-03-20T08:07:31.468Z,73.81
2019-03-20T08:10:14.815Z,73.98
2019-03-20T08:12:57.612Z,73.72
2019-03-20T08:15:40.423Z,73.50
2019-03-20T08:18:23.701Z,73.57
2019-03-20T08:20:58.331Z,73.63
2019-03-20T08:23:41.544Z,73.79
2019-03-20T08:26:16.196Z,73.33
2019-03-20T08:29:02.455Z,73.27
2019-03-20T08:31:45.835Z,72.99
2019-03-20T08:34:19.605Z,72.72
2019-03-20T08:36:53.439Z,72.98
2019-03-20T08:39:27.840Z,72.49
2019-03-20T08:42:01.923Z,71.88
2019-03-20T08:44:35.689Z,72.23
2019-03-20T08:47:09.579Z,72.57
2019-03-20T08:49:43.824Z,72.79
2019-03-20T08:52:17.362Z,73.09
2019-03-20T08:54:59.833Z,73.26
2019-03-20T08:57:43.144Z,73.22
2019-03-20T09:00:18.604Z,73.32
2019-03-20T09:02:53.364Z,73.49
2019-03-20T09:05:35.996Z,73.38
2019-03-20T09:08:29.248Z,73.64
2019-03-20T09:11:00.050Z,73.10
2019-03-20T09:13:42.380Z,73.34
2019-03-20T09:16:15.997Z,73.17
2019-03-20T09:18:50.671Z,73.26
2019-03-20T09:21:24.681Z,72.94
2019-03-20T09:23:58.442Z,72.98
2019-03-20T09:26:32.331Z,72.51
2019-03-20T09:29:05.862Z,72.65
2019-03-20T09:31:39.020Z,72.41
2019-03-20T09:34:12.974Z,72.55
2019-03-20T09:36:46.575Z,72.48
2019-03-20T09:39:20.654Z,72.54
2019-03-20T09:42:03.137Z,72.62
2019-03-20T09:44:37.133Z,72.59
2019-03-20T09:47:19.184Z,72.49
2019-03-20T09:49:52.646Z,71.99
2019-03-20T09:52:26.482Z,71.68
2019-03-20T09:55:00.347Z,71.84
2019-03-20T09:57:34.258Z,72.12
2019-03-20T10:00:24.848Z,72.05
2019-03-20T10:03:09.892Z,72.37
2019-03-20T10:05:43.021Z,72.07
2019-03-20T10:08:26.381Z,71.25
2019-03-20T10:10:59.502Z,71.38
2019-03-20T10:13:35.067Z,71.29
2019-03-20T10:16:08.484Z,71.34
2019-03-20T10:18:41.733Z,71.15
2019-03-20T10:21:24.163Z,71.48
2019-03-20T10:23:57.753Z,71.78
2019-03-20T10:26:31.196Z,72.01
2019-03-20T10:29:05.944Z,72.47
2019-03-20T10:31:39.836Z,72.69
2019-03-20T10:34:13.803Z,73.05
2019-03-20T10:36:47.175Z,73.30
2019-03-20T10:39:20.981Z,73.31
2019-03-20T10:41:54.415Z,73.10
2019-03-20T10:44:32.259Z,73.25
2019-03-20T10:47:13.206Z,73.29
2019-03-20T10:49:45.632Z,73.33
2019-03-20T10:52:28.091Z,73.12
2019-03-20T10:55:10.760Z,73.17
2019-03-20T10:57:44.361Z,73.25
2019-03-20T11:00:19.458Z,72.94
2019-03-20T11:02:52.975Z,72.87
2019-03-20T11:05:26.892Z,73.03
2019-03-20T11:08:00.633Z,73.20
2019-03-20T11:10:44.668Z,72.95
2019-03-20T11:13:18.225Z,73.05
2019-03-20T11:15:51.715Z,73.14
2019-03-20T11:18:25.238Z,73.19
2019-03-20T11:20:58.859Z,73.25
2019-03-20T11:23:32.292Z,73.25
2019-03-20T11:26:06.508Z,73.31
2019-03-20T11:28:39.930Z,73.50
2019-03-20T11:31:13.565Z,73.48
2019-03-20T11:33:47.659Z,73.55
2019-03-20T11:36:31.245Z,73.62
2019-03-20T11:39:07.054Z,73.41
2019-03-20T11:41:49.311Z,73.34
2019-03-20T11:44:23.064Z,73.00
2019-03-20T11:46:57.227Z,73.40
2019-03-20T11:49:30.844Z,73.14
2019-03-20T11:52:06.303Z,73.00
2019-03-20T11:54:39.849Z,72.92
2019-03-20T11:57:13.379Z,72.79
2019-03-20T11:59:46.840Z,73.06
2019-03-20T12:02:28.056Z,73.24
2019-03-20T12:05:05.671Z,73.05
2019-03-20T12:07:39.161Z,73.36
2019-03-20T12:10:15.271Z,73.84
2019-03-20T12:12:58.161Z,74.22
2019-03-20T12:15:31.920Z,74.57
2019-03-20T12:18:05.829Z,74.76
2019-03-20T12:20:39.270Z,74.96
2019-03-20T12:23:13.510Z,75.40
2019-03-20T12:25:47.191Z,75.43
2019-03-20T12:28:21.280Z,75.38
2019-03-20T12:31:03.804Z,75.54
2019-03-20T12:33:46.014Z,75.94
2019-03-20T12:36:19.726Z,76.40
2019-03-20T12:38:54.224Z,76.74
2019-03-20T12:41:28.087Z,77.00
2019-03-20T12:44:02.267Z,77.18
2019-03-20T12:46:41.338Z,77.86
2019-03-20T12:49:11.325Z,78.76
2019-03-20T12:51:54.196Z,79.20
2019-03-20T12:54:36.871Z,79.72
2019-03-20T12:57:10.646Z,80.88
2019-03-20T12:59:44.219Z,82.20
2019-03-20T13:02:18.390Z,83.18
2019-03-20T13:04:52.210Z,83.87
2019-03-20T13:07:25.752Z,84.24
2019-03-20T13:10:03.253Z,84.83
2019-03-20T13:12:33.663Z,85.08
2019-03-20T13:15:08.498Z,85.25
2019-03-20T13:17:41.652Z,85.29
2019-03-20T13:20:15.135Z,85.53
2019-03-20T13:23:00.311Z,85.78
2019-03-20T13:25:33.860Z,86.32
2019-03-20T13:28:07.357Z,86.81
2019-03-20T13:30:43.699Z,87.11
2019-03-20T13:33:25.280Z,87.47
2019-03-20T13:35:53.146Z,87.69
2019-03-20T13:38:26.257Z,88.07
2019-03-20T13:41:00.786Z,88.47
2019-03-20T13:43:47.120Z,88.66
2019-03-20T13:46:21.828Z,88.91
2019-03-20T13:48:54.965Z,88.91
2019-03-20T13:51:29.131Z,88.95
2019-03-20T13:54:02.280Z,88.99
2019-03-20T13:56:36.599Z,88.93
2019-03-20T13:59:10.450Z,88.94
2019-03-20T14:01:44.636Z,88.77
2019-03-20T14:04:18.750Z,88.60
2019-03-20T14:06:52.525Z,88.30
2019-03-20T14:09:26.022Z,88.08
2019-03-20T14:11:59.853Z,87.82
2019-03-20T14:14:48.673Z,87.83
2019-03-20T14:17:23.450Z,87.82
2019-03-20T14:19:57.157Z,87.59
2019-03-20T14:22:30.882Z,87.46
2019-03-20T14:25:05.116Z,87.35
2019-03-20T14:27:48.419Z,87.47
2019-03-20T14:30:23.716Z,87.50
2019-03-20T14:32:56.980Z,87.49
2019-03-20T14:35:31.239Z,87.47
2019-03-20T14:38:05.073Z,87.42
2019-03-20T14:40:38.980Z,87.24
2019-03-20T14:43:22.190Z,87.30
2019-03-20T14:45:55.660Z,87.14
2019-03-20T14:48:39.009Z,87.09
2019-03-20T14:51:12.920Z,86.88
2019-03-20T14:53:47.357Z,86.86
2019-03-20T14:56:30.543Z,86.93
2019-03-20T14:59:04.060Z,86.86
2019-03-20T15:01:37.954Z,86.95
2019-03-20T15:04:11.607Z,86.83
2019-03-20T15:06:45.559Z,86.79
2019-03-20T15:09:19.903Z,86.68
2019-03-20T15:11:54.021Z,86.60
2019-03-20T15:14:27.879Z,86.43
2019-03-20T15:17:02.038Z,86.39
2019-03-20T15:19:44.747Z,86.39
2019-03-20T15:22:33.634Z,86.29
2019-03-20T15:25:16.884Z,86.24
2019-03-20T15:27:50.649Z,86.12
2019-03-20T15:30:26.276Z,86.16
2019-03-20T15:33:00.156Z,86.26
2019-03-20T15:35:34.032Z,86.20
2019-03-20T15:38:16.533Z,86.05
2019-03-20T15:40:56.151Z,86.05
2019-03-20T15:43:25.736Z,86.06
2019-03-20T15:46:09.018Z,85.98
2019-03-20T15:48:42.591Z,85.84
2019-03-20T15:51:16.585Z,85.77
2019-03-20T15:54:00.206Z,85.81
2019-03-20T15:56:44.898Z,85.84
2019-03-20T15:59:19.815Z,85.88
2019-03-20T16:01:53.785Z,85.78
2019-03-20T16:04:39.007Z,85.89
2019-03-20T16:07:13.129Z,85.88
2019-03-20T16:09:57.253Z,85.83
2019-03-20T16:12:46.346Z,85.86
2019-03-20T16:15:20.937Z,85.90
2019-03-20T16:18:06.743Z,85.98
2019-03-20T16:20:40.770Z,85.86
2019-03-20T16:23:14.544Z,85.70
2019-03-20T16:25:48.109Z,85.58
2019-03-20T16:28:22.454Z,85.60
2019-03-20T16:30:56.889Z,85.52
2019-03-20T16:33:30.396Z,85.55
2019-03-20T16:36:05.409Z,85.50
2019-03-20T16:38:49.296Z,85.62
2019-03-20T16:41:36.836Z,85.69
2019-03-20T16:44:19.608Z,85.70
2019-03-20T16:46:53.467Z,85.80
2019-03-20T16:49:26.714Z,85.92
2019-03-20T16:52:09.970Z,85.84
2019-03-20T16:54:44.646Z,85.82
2019-03-20T16:57:28.312Z,85.80
2019-03-20T17:00:02.260Z,85.78
2019-03-20T17:02:36.565Z,85.66
2019-03-20T17:05:19.823Z,85.66
2019-03-20T17:07:53.332Z,85.62
2019-03-20T17:10:29.043Z,85.66
2019-03-20T17:13:02.909Z,85.67
2019-03-20T17:15:37.071Z,85.66
2019-03-20T17:18:19.392Z,85.69
2019-03-20T17:20:53.604Z,85.65
2019-03-20T17:23:26.979Z,85.60
2019-03-20T17:26:00.637Z,85.62
2019-03-20T17:28:33.709Z,85.62
2019-03-20T17:31:07.852Z,85.65
2019-03-20T17:33:50.706Z,85.66
2019-03-20T17:36:33.664Z,85.65
2019-03-20T17:39:16.475Z,85.59
2019-03-20T17:41:59.501Z,85.53
2019-03-20T17:44:48.011Z,85.48
2019-03-20T17:47:21.223Z,85.43
2019-03-20T17:49:54.947Z,85.38
2019-03-20T17:52:28.179Z,85.42
2019-03-20T17:55:01.971Z,85.38
2019-03-20T17:57:35.123Z,85.41
2019-03-20T18:00:24.331Z,85.32
2019-03-20T18:03:15.467Z,85.26
2019-03-20T18:05:50.011Z,85.19
2019-03-20T18:08:33.275Z,85.10
2019-03-20T18:11:07.295Z,85.10
2019-03-20T18:13:41.117Z,85.13
2019-03-20T18:16:14.930Z,85.11
2019-03-20T18:18:48.897Z,85.12
2019-03-20T18:21:32.584Z,85.12
2019-03-20T18:24:06.876Z,85.13
2019-03-20T18:26:40.329Z,85.11
2019-03-20T18:29:14.267Z,85.09
2019-03-20T18:31:57.637Z,85.09
2019-03-20T18:34:40.555Z,85.08
2019-03-20T18:37:29.501Z,85.09
2019-03-20T18:40:03.351Z,85.07
2019-03-20T18:42:37.592Z,85.03
2019-03-20T18:45:11.624Z,84.93
2019-03-20T18:47:57.023Z,84.83
2019-03-20T18:50:30.490Z,84.76
2019-03-20T18:53:04.532Z,84.78
2019-03-20T18:55:39.003Z,84.84
2019-03-20T18:58:27.762Z,84.88
2019-03-20T19:01:02.025Z,84.80
2019-03-20T19:03:36.642Z,84.92
2019-03-20T19:06:14.456Z,84.97
2019-03-20T19:09:02.784Z,84.97
2019-03-20T19:11:37.792Z,85.03
2019-03-20T19:14:11.601Z,85.11
2019-03-20T19:16:45.130Z,85.10
2019-03-20T19:19:18.312Z,85.33
2019-03-20T19:21:52.407Z,85.51
2019-03-20T19:24:29.068Z,85.72
2019-03-20T19:27:02.629Z,85.86
2019-03-20T19:29:36.273Z,86.02
2019-03-20T19:32:10.008Z,86.25
2019-03-20T19:34:54.455Z,86.72
2019-03-20T19:37:28.074Z,87.19
2019-03-20T19:40:02.068Z,87.48
2019-03-20T19:42:45.266Z,87.84
2019-03-20T19:45:27.281Z,88.11
2019-03-20T19:48:10.279Z,88.43
2019-03-20T19:50:57.081Z,88.67
2019-03-20T19:53:31.209Z,88.83
2019-03-20T19:56:14.276Z,89.03
2019-03-20T19:58:56.985Z,89.17
2019-03-20T20:01:42.676Z,89.31
2019-03-20T20:04:16.400Z,89.49
2019-03-20T20:06:58.998Z,89.77
2019-03-20T20:09:32.133Z,89.90
2019-03-20T20:12:05.414Z,90.08
2019-03-20T20:14:39.000Z,90.22
2019-03-20T20:17:12.889Z,90.42
2019-03-20T20:19:45.982Z,90.64
2019-03-20T20:22:27.918Z,90.86
2019-03-20T20:25:02.052Z,91.08
2019-03-20T20:27:36.260Z,91.20
2019-03-20T20:30:12.083Z,91.34
2019-03-20T20:32:46.250Z,91.49
2019-03-20T20:35:28.749Z,91.75
2019-03-20T20:38:02.579Z,91.97
2019-03-20T20:40:44.924Z,92.17
2019-03-20T20:43:18.349Z,92.28
2019-03-20T20:45:51.808Z,92.45
2019-03-20T20:48:24.932Z,92.60
2019-03-20T20:51:08.918Z,92.67
2019-03-20T20:53:42.079Z,92.74
2019-03-20T20:56:15.778Z,92.81
2019-03-20T20:58:51.529Z,92.89
2019-03-20T21:01:34.161Z,92.96
2019-03-20T21:04:08.629Z,92.99
2019-03-20T21:06:42.507Z,93.04
2019-03-20T21:09:16.571Z,93.06
2019-03-20T21:11:50.085Z,93.06
2019-03-20T21:14:22.924Z,93.11
2019-03-20T21:16:56.979Z,93.12
2019-03-20T21:19:38.381Z,93.06
2019-03-20T21:22:49.720Z,93.04
2019-03-20T21:25:24.048Z,93.00
2019-03-20T21:28:50.864Z,92.96
2019-03-20T21:31:43.599Z,92.92
2019-03-20T21:35:11.866Z,92.89
2019-03-20T21:38:14.718Z,92.85
2019-03-20T21:41:00.942Z,92.84
2019-03-20T21:44:23.602Z,92.87
2019-03-20T21:47:38.264Z,92.78
2019-03-20T21:51:03.707Z,92.75
2019-03-20T21:54:10.764Z,92.71
2019-03-20T21:56:57.041Z,92.68
2019-03-20T21:59:53.248Z,92.67
2019-03-20T22:02:45.831Z,92.69
2019-03-20T22:05:54.650Z,92.68
2019-03-20T22:08:29.521Z,92.65
2019-03-20T22:11:35.522Z,92.63
2019-03-20T22:14:19.149Z,92.61
2019-03-20T22:17:50.616Z,92.64
2019-03-20T22:20:36.364Z,92.66
2019-03-20T22:24:09.335Z,92.62
2019-03-20T22:27:24.040Z,92.64
2019-03-20T22:29:58.692Z,92.64
2019-03-20T22:33:28.135Z,92.64
2019-03-20T22:36:19.493Z,92.60
2019-03-20T22:39:41.733Z,92.56
2019-03-20T22:42:50.901Z,92.46
2019-03-20T22:46:15.906Z,92.39
2019-03-20T22:49:50.160Z,92.26
2019-03-20T22:52:59.173Z,92.14
2019-03-20T22:56:10.382Z,92.05
2019-03-20T22:58:42.633Z,91.88
2019-03-20T23:01:26.501Z,91.74
2019-03-20T23:04:04.645Z,91.68
2019-03-20T23:06:38.440Z,91.67
2019-03-20T23:09:12.644Z,91.68
2019-03-20T23:11:44.842Z,91.69
2019-03-20T23:14:18.551Z,91.68
2019-03-20T23:16:52.587Z,91.63
2019-03-20T23:19:26.330Z,91.58
2019-03-20T23:22:00.709Z,91.51
2019-03-20T23:24:36.293Z,91.39
2019-03-20T23:27:14.184Z,91.29
2019-03-20T23:29:48.870Z,91.17
2019-03-20T23:32:22.584Z,91.04
2019-03-20T23:34:57.908Z,91.00
2019-03-20T23:37:41.205Z,90.97
2019-03-20T23:40:15.615Z,90.89
2019-03-20T23:43:01.539Z,90.77
2019-03-20T23:45:50.663Z,90.63
2019-03-20T23:48:35.492Z,90.52
2019-03-20T23:51:12.293Z,90.36
2019-03-20T23:53:48.715Z,90.18
2019-03-20T23:56:33.304Z,90.13
2019-03-20T23:59:16.120Z,90.12
